createdAt,value
2022-12-23T00:01:31.697Z,96504.13
2022-12-23T00:03:58.151Z,96495.88
2022-12-23T00:06:24.456Z,96500.44
2022-12-23T00:08:50.749Z,96493.00
2022-12-23T00:11:17.061Z,96501.00
2022-12-23T00:13:43.400Z,96508.75
2022-12-23T00:16:09.738Z,96493.59
2022-12-23T00:18:36.775Z,96498.66
2022-12-23T00:21:08.339Z,96503.75
2022-12-23T00:23:35.343Z,96502.44
2022-12-23T00:26:01.609Z,96504.84
2022-12-23T00:28:27.895Z,96495.81
2022-12-23T00:30:54.184Z,96500.88
2022-12-23T00:33:20.457Z,96496.88
2022-12-23T00:35:46.840Z,96496.34
2022-12-23T00:38:13.240Z,96498.75
2022-12-23T00:40:39.502Z,96517.19
2022-12-23T00:43:05.865Z,96510.50
2022-12-23T00:45:32.394Z,96497.75
2022-12-23T00:47:58.916Z,96507.03
2022-12-23T00:50:25.293Z,96501.19
2022-12-23T00:52:51.627Z,96499.88
2022-12-23T00:55:17.893Z,96507.31
2022-12-23T00:57:44.387Z,96510.53
2022-12-23T01:00:10.644Z,96510.00
2022-12-23T01:02:37.001Z,96503.63
2022-12-23T01:05:03.326Z,96503.09
2022-12-23T01:07:29.624Z,96515.88
2022-12-23T01:09:55.904Z,96506.84
2022-12-23T01:12:22.381Z,96511.63
2022-12-23T01:14:48.687Z,96518.00
2022-12-23T01:17:15.161Z,96513.22
2022-12-23T01:19:41.530Z,96518.81
2022-12-23T01:22:07.859Z,96520.16
2022-12-23T01:24:34.245Z,96515.91
2022-12-23T01:27:00.749Z,96514.56
2022-12-23T01:29:27.054Z,96520.16
2022-12-23T01:31:53.433Z,96518.03
2022-12-23T01:34:19.791Z,96513.78
2022-12-23T01:36:46.128Z,96522.28
2022-12-23T01:39:12.712Z,96536.66
2022-12-23T01:41:38.985Z,96537.22
2022-12-23T01:44:05.319Z,96536.69
2022-12-23T01:46:31.628Z,96529.75
2022-12-23T01:48:58.155Z,96531.09
2022-12-23T01:51:24.429Z,96530.56
2022-12-23T01:53:50.679Z,96532.41
2022-12-23T01:56:17.187Z,96536.41
2022-12-23T01:58:43.431Z,96538.28
2022-12-23T02:01:09.781Z,96541.19
2022-12-23T02:03:36.165Z,96520.72
2022-12-23T02:06:02.445Z,96546.25
2022-12-23T02:08:28.740Z,96555.28
2022-12-23T02:10:55.057Z,96549.47
2022-12-23T02:13:21.347Z,96547.84
2022-12-23T02:15:47.593Z,96540.94
2022-12-23T02:18:13.954Z,96553.69
2022-12-23T02:20:40.325Z,96547.03
2022-12-23T02:23:06.577Z,96545.72
2022-12-23T02:25:32.903Z,96536.13
2022-12-23T02:27:59.186Z,96547.84
2022-12-23T02:30:25.461Z,96546.50
2022-12-23T02:32:51.717Z,96557.41
2022-12-23T02:35:18.091Z,96557.94
2022-12-23T02:37:44.401Z,96553.69
2022-12-23T02:40:10.651Z,96552.09
2022-12-23T02:42:36.951Z,96561.41
2022-12-23T02:45:03.231Z,96564.06
2022-12-23T02:47:29.564Z,96561.66
2022-12-23T02:49:55.860Z,96566.44
2022-12-23T02:52:22.108Z,96580.78
2022-12-23T02:54:48.356Z,96581.84
2022-12-23T02:57:14.646Z,96582.91
2022-12-23T02:59:40.908Z,96588.50
2022-12-23T03:02:07.317Z,96580.75
2022-12-23T03:04:33.702Z,96582.88
2022-12-23T03:07:05.899Z,96578.63
2022-12-23T03:09:33.836Z,96573.56
2022-12-23T03:12:00.119Z,96571.16
2022-12-23T03:14:27.684Z,96560.53
2022-12-23T03:16:53.978Z,96562.66
2022-12-23T03:19:20.299Z,96560.25
2022-12-23T03:21:46.627Z,96567.44
2022-12-23T03:24:12.887Z,96569.28
2022-12-23T03:26:39.152Z,96565.31
2022-12-23T03:29:05.439Z,96548.84
2022-12-23T03:31:31.766Z,96553.59
2022-12-23T03:33:58.040Z,96552.00
2022-12-23T03:36:24.343Z,96561.03
2022-12-23T03:38:50.676Z,96554.13
2022-12-23T03:41:19.196Z,96563.16
2022-12-23T03:43:50.751Z,96558.09
2022-12-23T03:46:17.597Z,96566.34
2022-12-23T03:48:44.104Z,96562.06
2022-12-23T03:51:10.356Z,96566.06
2022-12-23T03:53:36.585Z,96562.59
2022-12-23T03:56:02.865Z,96571.66
2022-12-23T03:58:29.134Z,96571.91
2022-12-23T04:00:55.413Z,96573.22
2022-12-23T04:03:21.804Z,96569.75
2022-12-23T04:05:48.083Z,96567.38
2022-12-23T04:08:14.395Z,96581.72
2022-12-23T04:10:40.672Z,96586.22
2022-12-23T04:13:07.005Z,96583.84
2022-12-23T04:15:33.296Z,96584.88
2022-12-23T04:17:59.791Z,96591.25
2022-12-23T04:20:26.100Z,96584.34
2022-12-23T04:22:52.370Z,96582.75
2022-12-23T04:25:18.656Z,96581.16
2022-12-23T04:27:45.459Z,96587.50
2022-12-23T04:30:11.728Z,96596.81
2022-12-23T04:32:38.097Z,96601.31
2022-12-23T04:35:04.354Z,96609.03
2022-12-23T04:37:30.632Z,96607.72
2022-12-23T04:39:56.955Z,96611.41
2022-12-23T04:42:23.274Z,96613.28
2022-12-23T04:44:49.813Z,96611.66
2022-12-23T04:47:16.263Z,96616.16
2022-12-23T04:49:42.590Z,96614.59
2022-12-23T04:52:08.903Z,96611.13
2022-12-23T04:54:36.421Z,96622.81
2022-12-23T04:57:04.383Z,96607.13
2022-12-23T04:59:30.804Z,96606.59
2022-12-23T05:01:57.439Z,96603.94
2022-12-23T05:04:23.888Z,96618.81
2022-12-23T05:06:50.210Z,96611.09
2022-12-23T05:09:16.455Z,96616.41
2022-12-23T05:11:42.724Z,96615.59
2022-12-23T05:14:08.999Z,96619.06
2022-12-23T05:16:35.317Z,96619.34
2022-12-23T05:19:01.718Z,96619.34
2022-12-23T05:21:27.991Z,96619.59
2022-12-23T05:23:54.265Z,96626.75
2022-12-23T05:26:20.589Z,96630.47
2022-12-23T05:28:46.896Z,96625.16
2022-12-23T05:31:13.273Z,96628.09
2022-12-23T05:33:39.535Z,96633.41
2022-12-23T05:36:05.877Z,96632.59
2022-12-23T05:38:32.112Z,96635.25
2022-12-23T05:40:58.543Z,96634.69
2022-12-23T05:43:24.937Z,96647.72
2022-12-23T05:45:51.308Z,96643.47
2022-12-23T05:48:17.952Z,96644.25
2022-12-23T05:50:44.382Z,96647.97
2022-12-23T05:53:10.716Z,96655.13
2022-12-23T05:55:37.029Z,96654.34
2022-12-23T05:58:03.422Z,96662.56
2022-12-23T06:00:29.685Z,96669.47
2022-12-23T06:02:56.330Z,96669.22
2022-12-23T06:05:22.708Z,96665.75
2022-12-23T06:07:49.076Z,96666.56
2022-12-23T06:10:15.425Z,96662.06
2022-12-23T06:12:42.392Z,96664.72
2022-12-23T06:15:08.639Z,96658.59
2022-12-23T06:17:34.968Z,96657.00
2022-12-23T06:20:01.272Z,96662.31
2022-12-23T06:22:27.589Z,96660.69
2022-12-23T06:24:53.835Z,96666.03
2022-12-23T06:27:20.180Z,96669.75
2022-12-23T06:29:46.426Z,96665.72
2022-12-23T06:32:13.727Z,96664.94
2022-12-23T06:34:40.221Z,96672.91
2022-12-23T06:37:06.644Z,96676.59
2022-12-23T06:39:32.963Z,96677.69
2022-12-23T06:41:59.251Z,96684.56
2022-12-23T06:44:25.587Z,96685.66
2022-12-23T06:46:51.875Z,96697.03
2022-12-23T06:49:18.192Z,96701.84
2022-12-23T06:51:44.442Z,96714.31
2022-12-23T06:54:16.800Z,96717.22
2022-12-23T06:56:43.315Z,96714.81
2022-12-23T06:59:09.657Z,96722.78
2022-12-23T07:01:36.262Z,96724.63
2022-12-23T07:04:03.188Z,96734.44
2022-12-23T07:06:29.504Z,96731.78
2022-12-23T07:08:55.779Z,96735.50
2022-12-23T07:11:22.065Z,96738.16
2022-12-23T07:13:48.422Z,96744.25
2022-12-23T07:16:14.967Z,96747.72
2022-12-23T07:18:41.347Z,96754.69
2022-12-23T07:21:13.987Z,96767.84
2022-12-23T07:23:46.255Z,96763.25
2022-12-23T07:26:12.601Z,96768.41
2022-12-23T07:28:38.851Z,96770.41
2022-12-23T07:31:05.264Z,96778.22
2022-12-23T07:33:31.543Z,96768.69
2022-12-23T07:35:57.831Z,96771.66
2022-12-23T07:38:24.152Z,96774.88
2022-12-23T07:40:50.505Z,96771.41
2022-12-23T07:43:17.281Z,96781.56
2022-12-23T07:45:43.608Z,96783.69
2022-12-23T07:48:09.906Z,96779.22
2022-12-23T07:50:36.264Z,96776.28
2022-12-23T07:53:02.738Z,96780.81
2022-12-23T07:55:29.082Z,96785.88
2022-12-23T07:57:55.326Z,96786.97
2022-12-23T08:00:21.691Z,96785.34
2022-12-23T08:02:48.153Z,96785.34
2022-12-23T08:05:14.742Z,96772.28
2022-12-23T08:07:41.217Z,96784.84
2022-12-23T08:10:07.541Z,96785.88
2022-12-23T08:12:33.833Z,96790.69
2022-12-23T08:15:00.073Z,96788.56
2022-12-23T08:17:26.334Z,96791.22
2022-12-23T08:19:52.587Z,96790.94
2022-12-23T08:22:18.870Z,96792.25
2022-12-23T08:24:45.329Z,96805.84
2022-12-23T08:27:11.687Z,96804.81
2022-12-23T08:29:37.961Z,96809.88
2022-12-23T08:32:04.325Z,96807.72
2022-12-23T08:34:36.413Z,96817.31
2022-12-23T08:37:03.404Z,96818.94
2022-12-23T08:39:29.695Z,96832.78
2022-12-23T08:41:55.982Z,96838.09
2022-12-23T08:44:22.275Z,96834.38
2022-12-23T08:46:51.557Z,96838.38
2022-12-23T08:52:02.410Z,96833.84
2022-12-23T08:54:28.688Z,96835.47
2022-12-23T08:56:54.995Z,96824.78
2022-12-23T08:59:21.253Z,96825.56
2022-12-23T09:01:47.691Z,96824.25
2022-12-23T09:04:14.218Z,96825.06
2022-12-23T09:06:40.485Z,96828.22
2022-12-23T09:09:07.435Z,96824.50
2022-12-23T09:11:33.717Z,96817.81
2022-12-23T09:13:59.965Z,96825.81
2022-12-23T09:16:26.341Z,96821.56
2022-12-23T09:18:52.716Z,96821.31
2022-12-23T09:21:19.139Z,96817.81
2022-12-23T09:23:45.938Z,96819.44
2022-12-23T09:26:12.222Z,96818.34
2022-12-23T09:28:38.537Z,96821.84
2022-12-23T09:31:04.849Z,96810.09
2022-12-23T09:33:31.153Z,96813.56
2022-12-23T09:35:57.397Z,96821.56
2022-12-23T09:38:26.771Z,96817.84
2022-12-23T09:40:53.110Z,96817.56
2022-12-23T09:43:19.499Z,96813.00
2022-12-23T09:45:45.898Z,96826.09
2022-12-23T09:48:12.150Z,96832.22
2022-12-23T09:50:38.373Z,96833.06
2022-12-23T09:53:04.618Z,96832.22
2022-12-23T09:55:30.981Z,96832.22
2022-12-23T09:57:57.357Z,96828.53
2022-12-23T10:00:23.620Z,96839.19
2022-12-23T10:02:50.326Z,96836.53
2022-12-23T10:05:16.807Z,96829.31
2022-12-23T10:07:43.239Z,96830.13
2022-12-23T10:10:09.528Z,96834.66
2022-12-23T10:12:39.797Z,96832.78
2022-12-23T10:15:06.746Z,96833.59
2022-12-23T10:17:33.180Z,96844.00
2022-12-23T10:19:59.442Z,96833.31
2022-12-23T10:22:25.707Z,96831.19
2022-12-23T10:24:51.970Z,96833.56
2022-12-23T10:27:18.225Z,96832.50
2022-12-23T10:29:44.539Z,96823.16
2022-12-23T10:32:11.056Z,96821.03
2022-12-23T10:34:38.713Z,96815.69
2022-12-23T10:37:05.607Z,96808.75
2022-12-23T10:39:31.945Z,96809.81
2022-12-23T10:41:58.220Z,96811.41
2022-12-23T10:44:24.566Z,96802.34
2022-12-23T10:46:50.922Z,96803.16
2022-12-23T10:49:17.335Z,96807.13
2022-12-23T10:51:43.729Z,96803.41
2022-12-23T10:54:10.035Z,96799.66
2022-12-23T10:56:36.374Z,96807.13
2022-12-23T10:59:02.871Z,96805.25
2022-12-23T11:01:29.220Z,96799.09
2022-12-23T11:03:55.646Z,96800.72
2022-12-23T11:06:22.005Z,96804.97
2022-12-23T11:08:48.407Z,96798.59
2022-12-23T11:11:14.930Z,96795.13
2022-12-23T11:13:41.235Z,96792.44
2022-12-23T11:16:07.813Z,96790.59
2022-12-23T11:18:38.813Z,96785.25
2022-12-23T11:21:08.288Z,96782.59
2022-12-23T11:23:34.590Z,96784.16
2022-12-23T11:26:02.153Z,96785.75
2022-12-23T11:28:28.438Z,96790.59
2022-12-23T11:30:56.486Z,96790.59
2022-12-23T11:33:23.234Z,96788.97
2022-12-23T11:35:49.608Z,96784.44
2022-12-23T11:38:15.930Z,96776.44
2022-12-23T11:40:42.172Z,96770.03
2022-12-23T11:43:08.433Z,96762.81
2022-12-23T11:45:34.760Z,96766.28
2022-12-23T11:48:01.037Z,96760.16
2022-12-23T11:50:27.452Z,96747.63
2022-12-23T11:52:53.750Z,96745.22
2022-12-23T11:55:20.012Z,96750.56
2022-12-23T11:57:46.321Z,96745.72
2022-12-23T12:00:12.599Z,96736.13
2022-12-23T12:02:39.021Z,96726.81
2022-12-23T12:05:05.419Z,96718.00
2022-12-23T12:07:31.675Z,96707.31
2022-12-23T12:09:58.040Z,96705.47
2022-12-23T12:12:24.397Z,96708.63
2022-12-23T12:14:50.679Z,96699.84
2022-12-23T12:17:17.056Z,96703.00
2022-12-23T12:19:43.333Z,96696.63
2022-12-23T12:22:09.607Z,96694.75
2022-12-23T12:24:35.943Z,96697.16
2022-12-23T12:27:03.115Z,96699.53
2022-12-23T12:29:29.460Z,96699.25
2022-12-23T12:31:55.891Z,96694.44
2022-12-23T12:34:22.197Z,96683.78
2022-12-23T12:36:48.508Z,96676.28
2022-12-23T12:39:14.817Z,96677.88
2022-12-23T12:41:41.304Z,96669.06
2022-12-23T12:44:07.647Z,96662.94
2022-12-23T12:46:33.970Z,96660.00
2022-12-23T12:49:00.271Z,96656.53
2022-12-23T12:51:26.502Z,96649.84
2022-12-23T12:53:53.065Z,96656.75
2022-12-23T12:56:19.435Z,96645.81
2022-12-23T12:58:45.749Z,96648.47
2022-12-23T13:01:12.235Z,96638.59
2022-12-23T13:03:38.558Z,96645.53
2022-12-23T13:06:04.852Z,96641.81
2022-12-23T13:08:31.170Z,96642.63
2022-12-23T13:10:57.415Z,96628.47
2022-12-23T13:13:23.810Z,96629.25
2022-12-23T13:15:50.081Z,96641.81
2022-12-23T13:18:16.381Z,96641.00
2022-12-23T13:20:42.628Z,96645.53
2022-12-23T13:23:34.278Z,96643.94
2022-12-23T13:25:55.146Z,96629.78
2022-12-23T13:28:21.523Z,96630.59
2022-12-23T13:30:49.013Z,96626.34
2022-12-23T13:33:15.338Z,96614.59
2022-12-23T13:35:41.596Z,96598.84
2022-12-23T13:38:07.835Z,96603.38
2022-12-23T13:40:34.108Z,96602.59
2022-12-23T13:43:00.352Z,96597.53
2022-12-23T13:45:26.630Z,96600.47
2022-12-23T13:47:52.926Z,96583.66
2022-12-23T13:50:19.352Z,96600.75
2022-12-23T13:52:45.622Z,96606.09
2022-12-23T13:55:11.867Z,96594.09
2022-12-23T13:57:38.118Z,96591.41
2022-12-23T14:00:06.190Z,96590.66
2022-12-23T14:02:32.644Z,96588.25
2022-12-23T14:04:58.923Z,96578.66
2022-12-23T14:07:25.222Z,96585.84
2022-12-23T14:09:51.493Z,96588.00
2022-12-23T14:12:17.738Z,96573.59
2022-12-23T14:14:44.015Z,96571.19
2022-12-23T14:17:10.329Z,96568.81
2022-12-23T14:19:36.634Z,96572.53
2022-12-23T14:22:02.952Z,96570.16
2022-12-23T14:24:29.193Z,96570.97
2022-12-23T14:26:55.474Z,96577.88
2022-12-23T14:29:24.650Z,96582.44
2022-12-23T14:31:50.914Z,96577.88
2022-12-23T14:34:17.196Z,96576.28
2022-12-23T14:36:43.568Z,96571.75
2022-12-23T14:39:09.890Z,96563.75
2022-12-23T14:41:36.190Z,96566.44
2022-12-23T14:44:11.125Z,96573.63
2022-12-23T14:46:40.299Z,96578.97
2022-12-23T14:51:52.822Z,96573.91
2022-12-23T14:54:20.712Z,96566.97
2022-12-23T14:56:46.928Z,96572.59
2022-12-23T14:59:13.188Z,96573.38
2022-12-23T15:01:39.584Z,96573.66
2022-12-23T15:04:05.945Z,96565.66
2022-12-23T15:06:32.185Z,96552.59
2022-12-23T15:09:00.872Z,96543.00
2022-12-23T15:11:27.229Z,96537.66
2022-12-23T15:13:53.721Z,96530.75
2022-12-23T15:16:20.041Z,96515.00
2022-12-23T15:18:46.309Z,96508.88
2022-12-23T15:21:12.628Z,96505.41
2022-12-23T15:23:38.921Z,96511.03
2022-12-23T15:26:05.279Z,96501.44
2022-12-23T15:28:31.541Z,96503.31
2022-12-23T15:30:57.950Z,96505.16
2022-12-23T15:36:10.632Z,96486.78
2022-12-23T15:38:37.067Z,96479.06
2022-12-23T15:41:03.316Z,96475.84
2022-12-23T15:43:29.595Z,96471.63
2022-12-23T15:45:55.974Z,96465.19
2022-12-23T15:48:22.205Z,96463.63
2022-12-23T15:50:48.492Z,96451.34
2022-12-23T15:53:14.786Z,96453.22
2022-12-23T15:55:41.086Z,96436.41
2022-12-23T15:58:07.951Z,96445.47
2022-12-23T16:00:37.477Z,96433.22
2022-12-23T16:03:06.703Z,96422.56
2022-12-23T16:05:36.657Z,96425.22
2022-12-23T16:08:02.929Z,96416.13
2022-12-23T16:10:29.169Z,96414.56
2022-12-23T16:12:55.510Z,96432.16
2022-12-23T16:15:21.763Z,96419.34
2022-12-23T16:17:47.952Z,96415.59
2022-12-23T16:20:14.519Z,96412.38
2022-12-23T16:22:40.810Z,96417.13
2022-12-23T16:25:07.102Z,96407.00
2022-12-23T16:27:33.471Z,96394.97
2022-12-23T16:29:59.810Z,96377.88
2022-12-23T16:32:26.244Z,96364.78
2022-12-23T16:34:52.652Z,96355.72
2022-12-23T16:37:18.932Z,96355.41
2022-12-23T16:39:45.290Z,96350.59
2022-12-23T16:42:11.568Z,96347.66
2022-12-23T16:44:38.040Z,96345.47
2022-12-23T16:47:04.933Z,96345.22
2022-12-23T16:49:33.762Z,96334.25
2022-12-23T16:52:00.455Z,96330.50
2022-12-23T16:54:26.727Z,96343.53
2022-12-23T16:56:53.008Z,96339.00
2022-12-23T16:59:19.309Z,96347.53
2022-12-23T17:01:45.790Z,96336.84
2022-12-23T17:04:12.218Z,96331.53
2022-12-23T17:06:38.583Z,96339.25
2022-12-23T17:09:04.912Z,96335.47
2022-12-23T17:11:31.290Z,96336.78
2022-12-23T17:14:03.854Z,96330.38
2022-12-23T17:16:32.103Z,96335.72
2022-12-23T17:18:58.512Z,96326.34
2022-12-23T17:21:24.783Z,96319.16
2022-12-23T17:23:51.056Z,96314.31
2022-12-23T17:26:17.385Z,96307.09
2022-12-23T17:28:43.724Z,96302.56
2022-12-23T17:31:14.727Z,96304.13
2022-12-23T17:33:43.144Z,96307.59
2022-12-23T17:36:09.504Z,96301.19
2022-12-23T17:38:35.762Z,96301.97
2022-12-23T17:41:02.071Z,96310.78
2022-12-23T17:43:28.405Z,96291.28
2022-12-23T17:45:54.675Z,96285.97
2022-12-23T17:48:25.239Z,96314.53
2022-12-23T17:50:54.464Z,96312.66
2022-12-23T17:53:20.726Z,96293.47
2022-12-23T17:55:47.047Z,96309.47
2022-12-23T17:58:13.656Z,96284.97
2022-12-23T18:00:41.144Z,96294.03
2022-12-23T18:03:07.412Z,96293.22
2022-12-23T18:05:33.797Z,96287.13
2022-12-23T18:08:00.096Z,96291.66
2022-12-23T18:10:26.457Z,96289.28
2022-12-23T18:12:52.799Z,96282.34
2022-12-23T18:15:19.072Z,96285.28
2022-12-23T18:17:45.335Z,96282.91
2022-12-23T18:20:14.309Z,96272.25
2022-12-23T18:22:40.596Z,96286.69
2022-12-23T18:25:06.909Z,96280.53
2022-12-23T18:27:33.199Z,96283.50
2022-12-23T18:29:59.444Z,96277.34
2022-12-23T18:32:25.734Z,96269.34
2022-12-23T18:34:51.963Z,96265.88
2022-12-23T18:37:18.342Z,96279.22
2022-12-23T18:39:44.738Z,96277.06
2022-12-23T18:42:10.988Z,96270.66
2022-12-23T18:44:37.288Z,96282.91
2022-12-23T18:47:03.568Z,96269.56
2022-12-23T18:49:31.068Z,96272.75
2022-12-23T18:51:57.326Z,96281.28
2022-12-23T18:54:23.883Z,96266.84
2022-12-23T18:56:50.149Z,96270.00
2022-12-23T18:59:16.392Z,96268.94
2022-12-23T19:01:42.716Z,96267.06
2022-12-23T19:04:09.026Z,96269.44
2022-12-23T19:06:35.328Z,96277.44
2022-12-23T19:09:01.534Z,96268.38
2022-12-23T19:11:27.845Z,96275.28
2022-12-23T19:13:54.115Z,96285.97
2022-12-23T19:16:20.451Z,96284.91
2022-12-23T19:18:46.879Z,96293.13
2022-12-23T19:21:13.214Z,96287.50
2022-12-23T19:23:39.597Z,96288.78
2022-12-23T19:26:05.846Z,96298.13
2022-12-23T19:28:32.143Z,96311.97
2022-12-23T19:30:58.480Z,96307.41
2022-12-23T19:33:24.818Z,96321.25
2022-12-23T19:35:51.091Z,96335.34
2022-12-23T19:38:17.330Z,96343.28
2022-12-23T19:40:43.615Z,96349.84
2022-12-23T19:43:09.906Z,96334.91
2022-12-23T19:45:36.315Z,96336.81
2022-12-23T19:48:02.638Z,96334.91
2022-12-23T19:50:28.917Z,96332.50
2022-12-23T19:52:55.371Z,96348.81
2022-12-23T19:55:21.651Z,96357.88
2022-12-23T19:57:47.906Z,96356.44
2022-12-23T20:00:14.948Z,96356.84
2022-12-23T20:02:41.234Z,96363.53
2022-12-23T20:05:08.093Z,96365.41
2022-12-23T20:07:34.433Z,96357.19
2022-12-23T20:10:00.854Z,96362.03
2022-12-23T20:12:27.094Z,96361.22
2022-12-23T20:14:54.505Z,96371.44
2022-12-23T20:17:20.748Z,96364.47
2022-12-23T20:19:47.961Z,96382.22
2022-12-23T20:22:14.334Z,96379.63
2022-12-23T20:24:40.574Z,96392.63
2022-12-23T20:27:11.470Z,96383.84
2022-12-23T20:29:38.851Z,96377.16
2022-12-23T20:32:05.127Z,96378.31
2022-12-23T20:34:38.392Z,96370.94
2022-12-23T20:37:05.820Z,96382.66
2022-12-23T20:39:32.121Z,96379.84
2022-12-23T20:41:58.450Z,96384.78
2022-12-23T20:44:34.668Z,96378.78
2022-12-23T20:47:01.831Z,96397.28
2022-12-23T20:49:28.233Z,96402.94
2022-12-23T20:51:54.548Z,96400.56
2022-12-23T20:54:24.925Z,96425.34
2022-12-23T20:56:54.515Z,96421.66
2022-12-23T20:59:20.905Z,96418.03
2022-12-23T21:01:47.275Z,96423.22
2022-12-23T21:04:13.616Z,96437.22
2022-12-23T21:06:39.922Z,96440.00
2022-12-23T21:09:06.250Z,96443.94
2022-12-23T21:11:32.483Z,96438.69
2022-12-23T21:14:05.953Z,96442.56
2022-12-23T21:16:33.291Z,96454.97
2022-12-23T21:18:59.734Z,96450.22
2022-12-23T21:21:26.003Z,96450.34
2022-12-23T21:23:52.316Z,96463.06
2022-12-23T21:26:18.614Z,96462.66
2022-12-23T21:28:44.904Z,96470.81
2022-12-23T21:31:11.304Z,96472.78
2022-12-23T21:33:37.685Z,96479.84
2022-12-23T21:36:04.030Z,96484.50
2022-12-23T21:38:30.332Z,96482.72
2022-12-23T21:40:56.607Z,96474.78
2022-12-23T21:43:22.926Z,96477.06
2022-12-23T21:45:49.178Z,96477.16
2022-12-23T21:48:15.444Z,96473.78
2022-12-23T21:50:42.290Z,96482.72
2022-12-23T21:53:08.556Z,96477.75
2022-12-23T21:55:34.852Z,96482.09
2022-12-23T21:58:01.139Z,96480.31
2022-12-23T22:00:27.405Z,96488.91
2022-12-23T22:02:53.763Z,96477.22
2022-12-23T22:05:20.066Z,96480.97
2022-12-23T22:07:47.004Z,96482.78
2022-12-23T22:10:13.247Z,96485.38
2022-12-23T22:12:39.513Z,96492.22
2022-12-23T22:15:11.304Z,96491.03
2022-12-23T22:17:38.081Z,96511.56
2022-12-23T22:20:06.801Z,96513.09
2022-12-23T22:22:33.107Z,96521.03
2022-12-23T22:24:59.364Z,96543.19
2022-12-23T22:27:25.677Z,96528.06
2022-12-23T22:29:51.983Z,96526.69
2022-12-23T22:32:18.298Z,96538.69
2022-12-23T22:34:44.577Z,96531.66
2022-12-23T22:37:10.881Z,96541.31
2022-12-23T22:39:37.124Z,96532.66
2022-12-23T22:42:03.490Z,96528.56
2022-12-23T22:44:29.839Z,96539.78
2022-12-23T22:46:56.193Z,96541.91
2022-12-23T22:49:22.683Z,96542.69
2022-12-23T22:51:49.050Z,96544.78
2022-12-23T22:54:17.649Z,96545.28
2022-12-23T22:56:43.965Z,96549.28
2022-12-23T22:59:13.287Z,96531.78
2022-12-23T23:01:39.566Z,96549.97
2022-12-23T23:04:05.925Z,96549.16
2022-12-23T23:06:32.155Z,96558.31
2022-12-23T23:08:58.441Z,96566.38
2022-12-23T23:11:24.862Z,96556.41
2022-12-23T23:13:51.316Z,96569.03
2022-12-23T23:16:17.622Z,96566.16
2022-12-23T23:18:43.967Z,96572.41
2022-12-23T23:21:10.233Z,96567.09
2022-12-23T23:23:36.632Z,96577.63
2022-12-23T23:26:03.032Z,96579.31
2022-12-23T23:28:29.338Z,96574.84
2022-12-23T23:31:23.931Z,96578.41
2022-12-23T23:33:41.924Z,96579.59
2022-12-23T23:36:11.310Z,96582.16
2022-12-23T23:38:37.636Z,96591.66
2022-12-23T23:41:03.917Z,96594.72
2022-12-23T23:43:33.209Z,96592.13
2022-12-23T23:45:59.608Z,96596.78
2022-12-23T23:48:25.980Z,96599.03
2022-12-23T23:50:52.243Z,96601.28
2022-12-23T23:53:18.524Z,96598.75
2022-12-23T23:55:44.819Z,96604.94
2022-12-23T23:58:11.127Z,96606.13
